Time;durP1;ratioP1;P1;durP2;ratioP2;P2;SDS_P1;SDS_P2;PMS_P1;PMS_P2;Temp;Humidity;BMP_temperature;BMP_pressure;BME280_temperature;BME280_humidity;BME280_pressure;Samples;Min_cycle;Max_cycle;Signal;HPM_P1;HPM_P2
2021/04/05 00:01:40;;;;;;;3.15;1.52;;;;;;;10.92;37.58;101037.06;5079228;28;19913;-82
2021/04/05 00:04:26;;;;;;;3.63;1.63;;;;;;;10.96;37.27;101024.44;5087159;28;20051;-83
2021/04/05 00:07:11;;;;;;;1.80;1.30;;;;;;;10.75;37.73;101028.75;5080227;28;20130;-81
2021/04/05 00:09:56;;;;;;;2.38;1.55;;;;;;;10.54;38.11;101031.16;5086284;28;20043;-82
2021/04/05 00:12:41;;;;;;;;;;;;;;;10.50;38.75;101032.88;5085225;28;20035;-82
2021/04/05 00:15:27;;;;;;;2.67;1.42;;;;;;;10.50;39.13;101024.72;5080137;28;19912;-83
2021/04/05 00:18:14;;;;;;;5.00;1.70;;;;;;;10.60;38.64;101027.22;5085802;28;20394;-83
2021/04/05 00:21:07;;;;;;;4.15;1.63;;;;;;;10.66;38.61;101020.53;5082413;28;20055;-82
2021/04/05 00:23:52;;;;;;;3.95;1.90;;;;;;;10.58;38.56;101022.06;5080598;28;20055;-82
2021/04/05 00:26:37;;;;;;;2.75;1.75;;;;;;;10.56;38.18;101013.44;5086013;28;20520;-83
2021/04/05 00:29:22;;;;;;;3.97;1.85;;;;;;;10.73;38.50;101016.28;5083899;28;20043;-83
2021/04/05 00:32:07;;;;;;;2.53;1.38;;;;;;;10.50;38.53;101019.28;5081688;28;20047;-83
2021/04/05 00:34:52;;;;;;;4.43;1.23;;;;;;;10.32;38.72;100999.28;5084001;28;20043;-81
2021/04/05 00:37:37;;;;;;;5.57;1.55;;;;;;;10.47;38.95;101000.84;5084066;28;20500;-82
2021/04/05 00:40:30;;;;;;;2.65;1.45;;;;;;;10.56;39.42;100999.84;5080525;28;20047;-83
2021/04/05 00:43:16;;;;;;;4.93;1.90;;;;;;;10.51;39.75;100988.28;5083738;28;20051;-84
2021/04/05 00:46:03;;;;;;;3.70;1.58;;;;;;;10.51;39.15;100991.00;5084147;28;20052;-83
2021/04/05 00:48:49;;;;;;;8.93;1.50;;;;;;;10.27;39.31;100988.53;5079652;28;20052;-83
2021/04/05 00:51:34;;;;;;;3.08;1.50;;;;;;;10.21;39.17;100992.47;5086232;28;20047;-84
2021/04/05 00:54:19;;;;;;;3.13;1.27;;;;;;;10.36;40.09;100992.16;5084628;28;20394;-81
2021/04/05 00:57:04;;;;;;;5.70;1.85;;;;;;;10.21;39.57;100987.84;5082114;28;20059;-83
2021/04/05 00:59:49;;;;;;;3.67;1.85;;;;;;;10.17;39.89;100986.03;5084847;28;20517;-82
2021/04/05 01:02:35;;;;;;;3.80;1.63;;;;;;;10.12;40.99;100989.66;5084609;28;20043;-82
2021/04/05 01:05:21;;;;;;;3.50;1.55;;;;;;;10.00;41.48;100975.00;5075766;28;21983;-83
2021/04/05 01:08:11;;;;;;;3.88;1.30;;;;;;;9.98;40.87;100958.19;5088031;28;20410;-83
2021/04/05 01:10:56;;;;;;;4.28;1.30;;;;;;;10.12;40.87;100976.06;5086676;28;20044;-81
2021/04/05 01:13:42;;;;;;;5.18;1.38;;;;;;;10.19;40.91;100973.78;5086108;28;20058;-80
2021/04/05 01:16:29;;;;;;;3.45;1.40;;;;;;;10.19;41.61;100971.06;5090066;28;20039;-80
2021/04/05 01:19:14;;;;;;;1.95;1.30;;;;;;;10.26;40.71;100984.19;5087976;28;20051;-81
2021/04/05 01:21:59;;;;;;;6.97;1.20;;;;;;;10.40;41.33;100965.16;5070381;28;20058;-81
2021/04/05 01:24:45;;;;;;;2.63;1.50;;;;;;;10.15;41.76;100974.66;5089378;28;20055;-80
2021/04/05 01:27:30;;;;;;;4.35;0.93;;;;;;;10.19;40.23;100971.06;5085312;28;20035;-81
2021/04/05 01:30:33;;;;;;;3.50;1.77;;;;;;;10.06;41.06;100969.13;5086221;28;20434;-81
2021/04/05 01:33:19;;;;;;;5.82;1.65;;;;;;;10.24;40.56;100964.69;5091278;28;20055;-80
2021/04/05 01:36:08;;;;;;;6.70;1.65;;;;;;;10.06;40.13;100958.25;5087436;28;20039;-83
2021/04/05 01:38:54;;;;;;;4.97;1.63;;;;;;;10.14;41.03;100962.19;5084703;28;20098;-81
2021/04/05 01:41:39;;;;;;;3.47;1.55;;;;;;;10.22;40.83;100956.03;5090032;28;20066;-83
2021/04/05 01:44:24;;;;;;;3.13;1.02;;;;;;;10.16;40.82;100951.81;5069543;28;20048;-82
2021/04/05 01:47:10;;;;;;;4.80;1.60;;;;;;;9.90;40.26;100945.34;5084083;28;20047;-82
2021/04/05 01:49:55;;;;;;;4.38;1.30;;;;;;;9.86;40.14;100945.13;5087101;28;20052;-84
2021/04/05 01:52:41;;;;;;;3.95;1.35;;;;;;;9.86;40.42;100942.41;5087212;28;20129;-82
2021/04/05 01:55:26;;;;;;;5.88;1.60;;;;;;;9.67;40.40;100941.72;5083577;28;20414;-84
2021/04/05 01:58:11;;;;;;;4.57;1.02;;;;;;;9.72;40.38;100933.47;5092140;28;20051;-82
2021/04/05 02:00:56;;;;;;;1.60;1.00;;;;;;;9.77;40.97;100938.81;5085831;28;20402;-82
2021/04/05 02:03:42;;;;;;;2.72;1.40;;;;;;;9.71;40.86;100927.25;5092477;28;20505;-82
2021/04/05 02:06:29;;;;;;;2.78;1.30;;;;;;;9.74;40.41;100928.56;5087123;28;20043;-83
2021/04/05 02:09:14;;;;;;;2.47;1.42;;;;;;;9.42;41.09;100919.44;5087585;28;20406;-83
2021/04/05 02:12:00;;;;;;;1.10;0.98;;;;;;;9.69;40.55;100917.81;5085040;28;20044;-82
2021/04/05 02:14:45;;;;;;;6.50;1.30;;;;;;;9.59;40.59;100918.81;5085882;28;20047;-83
2021/04/05 02:17:30;;;;;;;4.07;1.33;;;;;;;9.75;40.40;100920.09;5087507;28;20051;-82
2021/04/05 02:20:16;;;;;;;3.67;2.20;;;;;;;9.78;39.86;100924.13;5083924;28;20402;-83
2021/04/05 02:23:01;;;;;;;7.07;1.50;;;;;;;9.67;40.68;100922.72;5089119;28;20052;-83
2021/04/05 02:26:10;;;;;;;3.17;1.33;;;;;;;9.46;40.85;100933.19;5085132;28;20059;-83
2021/04/05 02:28:59;;;;;;;7.57;1.42;;;;;;;9.68;40.63;100927.06;5081120;28;20047;-83
2021/04/05 02:31:44;;;;;;;2.03;1.20;;;;;;;9.66;40.83;100921.91;5073305;28;20518;-83
2021/04/05 02:34:29;;;;;;;2.83;1.25;;;;;;;9.63;41.08;100917.09;5082858;28;20039;-83
2021/04/05 02:37:15;;;;;;;3.25;1.20;;;;;;;9.52;40.56;100914.91;5087089;28;20039;-83
2021/04/05 02:40:02;;;;;;;3.35;1.48;;;;;;;9.56;40.22;100908.56;5086846;28;20039;-81
2021/04/05 02:42:49;;;;;;;5.63;1.73;;;;;;;9.55;40.63;100904.22;5086175;28;20047;-82
2021/04/05 02:45:35;;;;;;;1.70;1.13;;;;;;;9.58;39.98;100903.63;5090537;28;20148;-81
2021/04/05 02:48:22;;;;;;;3.60;2.08;;;;;;;9.62;40.13;100895.69;5082651;28;20051;-84
2021/04/05 02:51:08;;;;;;;4.22;1.65;;;;;;;9.48;39.95;100894.91;5080909;28;20039;-81
2021/04/05 02:54:01;;;;;;;3.35;1.42;;;;;;;9.57;39.65;100884.94;5088178;28;20509;-81
2021/04/05 02:56:47;;;;;;;6.68;1.70;;;;;;;9.32;39.94;100888.97;5084821;28;20044;-82
2021/04/05 02:59:32;;;;;;;3.58;1.27;;;;;;;9.38;40.31;100875.00;5084135;28;20426;-84
2021/04/05 03:02:17;;;;;;;2.30;0.98;;;;;;;9.33;40.35;100874.31;5085016;28;20042;-83
2021/04/05 03:05:07;;;;;;;3.88;1.05;;;;;;;9.43;40.31;100874.91;5086262;28;20051;-83
2021/04/05 03:07:52;;;;;;;4.97;1.80;;;;;;;9.43;39.84;100872.19;5080011;28;20039;-82
2021/04/05 03:10:38;;;;;;;1.75;1.33;;;;;;;9.30;41.12;100864.03;5089511;28;20055;-83
2021/04/05 03:13:26;;;;;;;;;;;;;;;9.35;40.53;100859.31;5087385;28;20048;-84
2021/04/05 03:16:15;;;;;;;3.70;1.73;;;;;;;9.32;40.13;100853.69;5081023;28;19912;-82
2021/04/05 03:19:02;;;;;;;2.65;1.27;;;;;;;9.29;40.41;100865.19;5072593;28;20047;-84
2021/04/05 03:21:49;;;;;;;3.00;1.52;;;;;;;9.27;40.75;100862.75;5084159;28;20048;-82
2021/04/05 03:24:36;;;;;;;3.13;1.77;;;;;;;9.27;40.11;100862.75;5088988;28;20589;-83
2021/04/05 03:27:21;;;;;;;3.22;1.80;;;;;;;9.16;41.26;100858.63;5086351;28;20051;-80
2021/04/05 03:30:10;;;;;;;4.00;2.38;;;;;;;9.10;40.89;100846.28;5082500;28;20047;-82
2021/04/05 03:33:04;;;;;;;2.72;1.60;;;;;;;9.23;40.77;100848.19;5080703;28;20410;-84
2021/04/05 03:35:57;;;;;;;3.92;1.50;;;;;;;9.25;40.78;100840.53;5085155;28;20040;-82
2021/04/05 03:38:44;;;;;;;3.55;1.00;;;;;;;9.12;40.40;100840.56;5084784;28;20062;-83
2021/04/05 03:41:40;;;;;;;4.22;1.70;;;;;;;9.11;40.52;100822.66;5081522;28;20042;-80
2021/04/05 03:44:47;;;;;;;2.40;1.30;;;;;;;9.02;40.39;100817.16;5086759;28;20052;-81
2021/04/05 03:47:52;;;;;;;5.45;1.33;;;;;;;9.01;40.57;100807.41;5082713;28;20536;-79
2021/04/05 03:50:47;;;;;;;2.08;1.48;;;;;;;8.99;40.42;100793.31;5067395;28;20040;-79
2021/04/05 03:53:39;;;;;;;2.03;1.20;;;;;;;8.98;40.83;100797.97;5086266;28;20047;-82
2021/04/05 03:56:31;;;;;;;2.65;1.23;;;;;;;8.90;40.48;100801.38;5088000;28;20036;-84
2021/04/05 03:59:26;;;;;;;1.75;1.30;;;;;;;9.07;40.57;100806.19;5083762;28;20047;-83
2021/04/05 04:02:18;;;;;;;2.90;1.60;;;;;;;8.83;41.36;100794.75;5099001;22;20416;-77
2021/04/05 04:05:15;;;;;;;6.80;2.10;;;;;;;9.06;41.84;100790.22;5064749;28;20047;-77
2021/04/05 04:08:14;;;;;;;1.88;1.27;;;;;;;9.18;42.30;100790.50;5063122;28;20048;-77
2021/04/05 04:11:09;;;;;;;2.95;1.70;;;;;;;9.29;41.88;100795.44;5063881;28;20480;-77
2021/04/05 04:13:56;;;;;;;4.05;1.23;;;;;;;9.24;43.11;100787.41;5054811;28;20047;-77
2021/04/05 04:16:44;;;;;;;3.75;1.70;;;;;;;9.10;41.26;100785.78;5066793;28;20039;-78
2021/04/05 04:19:29;;;;;;;2.17;1.33;;;;;;;9.27;43.25;100792.22;5065251;28;20047;-76
2021/04/05 04:22:15;;;;;;;3.65;1.02;;;;;;;9.32;43.63;100796.72;5064404;28;20048;-76
2021/04/05 04:25:01;;;;;;;6.53;1.50;;;;;;;9.18;42.50;100795.94;5063663;28;20048;-76
2021/04/05 04:27:46;;;;;;;2.80;1.15;;;;;;;9.09;43.31;100793.16;5062496;28;20249;-76
2021/04/05 04:30:31;;;;;;;2.13;1.38;;;;;;;9.21;41.65;100784.47;5069250;28;20048;-77
2021/04/05 04:33:16;;;;;;;9.38;2.28;;;;;;;8.94;42.22;100782.59;5064166;28;20047;-76
2021/04/05 04:36:01;;;;;;;2.70;1.38;;;;;;;9.12;42.77;100789.00;5062489;28;20412;-76
2021/04/05 04:38:46;;;;;;;2.00;0.85;;;;;;;9.33;42.81;100780.13;5064323;28;20082;-76
2021/04/05 04:41:32;;;;;;;5.28;1.25;;;;;;;9.34;42.93;100781.75;5066821;28;20047;-78
2021/04/05 04:44:17;;;;;;;4.30;1.35;;;;;;;9.24;42.34;100773.84;5067688;28;20052;-78
2021/04/05 04:47:02;;;;;;;2.95;1.25;;;;;;;9.24;41.71;100779.25;5067235;28;20071;-77
2021/04/05 04:49:47;;;;;;;4.63;1.55;;;;;;;9.30;42.10;100786.16;5070180;28;20048;-77
2021/04/05 04:52:32;;;;;;;6.85;1.20;;;;;;;9.30;42.63;100793.50;5067982;28;20519;-77
2021/04/05 04:55:18;;;;;;;4.20;1.95;;;;;;;9.44;43.41;100786.94;5063842;28;20048;-77
2021/04/05 04:58:03;;;;;;;5.32;0.93;;;;;;;9.49;42.73;100782.50;5068063;28;20052;-77
2021/04/05 05:00:49;;;;;;;3.15;1.40;;;;;;;9.53;41.98;100780.78;5069794;28;20039;-77
2021/04/05 05:03:35;;;;;;;2.95;1.27;;;;;;;9.47;39.96;100779.28;5064061;28;20048;-77
2021/04/05 05:06:22;;;;;;;5.18;1.60;;;;;;;9.27;40.38;100775.94;5067555;28;20790;-77
2021/04/05 05:09:07;;;;;;;7.97;1.95;;;;;;;9.29;40.72;100776.44;5066558;28;20412;-77
2021/04/05 05:11:53;;;;;;;3.97;1.08;;;;;;;9.29;41.00;100787.28;5068596;28;20043;-77
2021/04/05 05:14:39;;;;;;;5.20;1.63;;;;;;;9.42;40.84;100778.31;5072235;28;20404;-77
2021/04/05 05:17:24;;;;;;;8.73;3.65;;;;;;;9.24;40.50;100779.25;5068000;28;20512;-77
2021/04/05 05:20:12;;;;;;;9.25;4.00;;;;;;;9.21;40.19;100782.56;5067153;28;20067;-77
2021/04/05 05:23:01;;;;;;;6.72;3.78;;;;;;;9.25;41.25;100790.88;5063607;28;20055;-77
2021/04/05 05:25:48;;;;;;;3.88;2.38;;;;;;;9.25;40.43;100786.25;5071491;28;20067;-77
2021/04/05 05:28:36;;;;;;;8.88;2.65;;;;;;;9.27;39.92;100775.94;5063426;28;20035;-76
2021/04/05 05:31:21;;;;;;;10.50;2.90;;;;;;;9.24;39.90;100773.03;5069527;28;20052;-77
2021/04/05 05:34:12;;;;;;;8.65;2.22;;;;;;;9.36;40.54;100776.00;5066935;28;20420;-77
2021/04/05 05:36:57;;;;;;;5.43;2.42;;;;;;;9.42;39.93;100781.00;5065942;28;20063;-77
2021/04/05 05:39:42;;;;;;;3.38;1.80;;;;;;;9.53;38.68;100788.94;5069905;28;20523;-77
2021/04/05 05:42:26;;;;;;;3.97;2.00;;;;;;;9.63;38.86;100788.69;5050462;28;20515;-78
2021/04/05 05:45:17;;;;;;;7.47;2.10;;;;;;;9.52;39.29;100787.31;5066021;28;20103;-77
2021/04/05 05:48:24;;;;;;;6.30;2.08;;;;;;;9.70;38.80;100786.38;5055785;28;20637;-77
2021/04/05 05:51:51;;;;;;;4.95;2.25;;;;;;;9.71;39.10;100785.22;5064055;28;20043;-77
2021/04/05 05:54:45;;;;;;;5.45;2.45;;;;;;;9.64;39.38;100776.72;5069560;28;20048;-78
2021/04/05 05:57:48;;;;;;;9.48;3.08;;;;;;;9.87;39.24;100771.00;5067747;28;20043;-77
2021/04/05 06:00:38;;;;;;;5.53;2.25;;;;;;;9.91;38.99;100770.38;5067790;28;20051;-76
2021/04/05 06:03:41;;;;;;;20.33;5.57;;;;;;;9.98;39.39;100757.97;5066363;28;20035;-77
2021/04/05 06:06:34;;;;;;;19.00;7.95;;;;;;;10.19;39.17;100761.81;5069924;28;20511;-77
2021/04/05 06:09:52;;;;;;;19.08;8.52;;;;;;;10.26;38.85;100764.88;5064831;28;20055;-78
2021/04/05 06:12:58;;;;;;;23.42;9.63;;;;;;;10.43;38.84;100756.00;5033239;28;20044;-78
2021/04/05 06:15:52;;;;;;;16.05;7.22;;;;;;;10.58;39.01;100762.94;5065174;28;20063;-79
2021/04/05 06:18:39;;;;;;;10.80;5.68;;;;;;;10.69;39.61;100754.19;5063279;28;20048;-79
2021/04/05 06:21:43;;;;;;;7.00;3.10;;;;;;;10.74;39.09;100753.25;5073249;28;20056;-79
2021/04/05 06:25:06;;;;;;;8.07;2.40;;;;;;;10.92;40.38;100749.44;5066927;28;20047;-78
2021/04/05 06:27:54;;;;;;;5.03;2.20;;;;;;;11.07;38.46;100749.00;5068241;28;20044;-78
2021/04/05 06:30:57;;;;;;;6.07;1.98;;;;;;;11.22;38.55;100749.69;5064170;28;20043;-79
2021/04/05 06:33:52;;;;;;;6.88;2.38;;;;;;;11.50;38.16;100740.88;5072263;28;20412;-76
2021/04/05 06:37:01;;;;;;;4.70;2.08;;;;;;;11.67;37.39;100734.63;5065503;28;20468;-78
2021/04/05 06:39:50;;;;;;;8.38;1.90;;;;;;;12.25;37.92;100722.34;5066321;28;20412;-80
2021/04/05 06:43:06;;;;;;;6.28;1.98;;;;;;;12.38;35.45;100738.53;5070743;28;20827;-79
2021/04/05 06:46:16;;;;;;;6.78;1.90;;;;;;;12.40;36.34;100730.78;5066967;28;20071;-79
2021/04/05 06:49:35;;;;;;;2.45;1.73;;;;;;;12.50;35.18;100728.81;5066821;28;20067;-81
2021/04/05 06:52:50;;;;;;;7.78;1.70;;;;;;;12.49;35.71;100721.78;5069765;28;20043;-79
2021/04/05 06:55:45;;;;;;;4.70;1.48;;;;;;;12.80;35.01;100717.59;5037434;28;20040;-79
2021/04/05 06:58:42;;;;;;;2.75;1.50;;;;;;;13.06;34.53;100724.84;5072142;28;20047;-80
2021/04/05 07:01:49;;;;;;;3.47;1.35;;;;;;;13.62;35.71;100721.53;5069860;28;20337;-80
2021/04/05 07:05:07;;;;;;;3.72;1.45;;;;;;;13.21;34.69;100713.34;5066582;28;20051;-79
2021/04/05 07:08:15;;;;;;;4.32;1.35;;;;;;;14.03;34.62;100708.91;5066065;28;20045;-80
2021/04/05 07:11:20;;;;;;;4.50;2.17;;;;;;;14.14;32.04;100705.41;5068845;28;20047;-79
2021/04/05 07:14:23;;;;;;;2.03;1.13;;;;;;;13.89;31.32;100705.69;5069351;28;20055;-80
2021/04/05 07:17:13;;;;;;;6.50;1.20;;;;;;;13.72;32.23;100706.66;5075221;28;20294;-80
2021/04/05 07:20:07;;;;;;;3.28;1.10;;;;;;;13.53;31.00;100698.16;5071856;28;20048;-79
2021/04/05 07:23:20;;;;;;;2.70;1.00;;;;;;;14.20;30.62;100692.31;5067056;28;20043;-79
2021/04/05 07:26:25;;;;;;;1.20;0.73;;;;;;;14.28;31.24;100694.13;5071173;28;20321;-79
2021/04/05 07:29:35;;;;;;;3.40;1.10;;;;;;;14.65;30.81;100699.66;5066921;28;20051;-86
2021/04/05 07:32:58;;;;;;;4.13;0.98;;;;;;;14.32;30.15;100688.81;5080590;28;20035;-81
2021/04/05 07:35:55;;;;;;;4.85;1.30;;;;;;;17.84;24.78;100700.41;5063258;28;20405;-79
2021/04/05 07:38:54;;;;;;;3.08;1.00;;;;;;;21.52;18.28;100698.44;5065869;28;20066;-79
2021/04/05 07:41:49;;;;;;;2.55;0.80;;;;;;;26.31;14.57;100700.09;5066400;28;20048;-80
2021/04/05 07:45:02;;;;;;;1.70;0.90;;;;;;;26.08;13.93;100695.22;5068443;28;20063;-80
2021/04/05 07:48:28;;;;;;;2.35;0.82;;;;;;;24.48;15.08;100696.25;5067620;28;20055;-78
2021/04/05 07:51:24;;;;;;;3.83;0.90;;;;;;;25.04;15.03;100691.41;5067995;28;20342;-79
2021/04/05 07:54:10;;;;;;;3.30;0.75;;;;;;;27.46;12.76;100703.16;5067310;28;20047;-79
2021/04/05 07:57:16;;;;;;;4.82;0.85;;;;;;;27.18;13.99;100698.94;5069908;28;20500;-80
2021/04/05 08:00:23;;;;;;;1.92;1.13;;;;;;;28.73;11.41;100703.03;5066583;28;20127;-80
2021/04/05 08:03:21;;;;;;;20.77;2.03;;;;;;;28.77;12.25;100712.13;5065775;28;20182;-79
2021/04/05 08:06:12;;;;;;;18.02;1.73;;;;;;;31.81;9.88;100706.31;5052043;28;20044;-80
2021/04/05 08:09:04;;;;;;;9.35;1.20;;;;;;;31.70;9.65;100706.75;5066082;28;20051;-80
2021/04/05 08:12:10;;;;;;;3.40;0.80;;;;;;;32.24;9.70;100716.69;5069151;28;20055;-79
2021/04/05 08:15:22;;;;;;;5.15;1.20;;;;;;;33.93;7.91;100714.03;5070025;28;20052;-79
2021/04/05 08:18:37;;;;;;;6.85;0.85;;;;;;;33.25;8.64;100714.81;5077586;28;20043;-79
2021/04/05 08:21:33;;;;;;;1.95;0.60;;;;;;;30.13;11.06;100699.38;5063036;28;20507;-79
2021/04/05 08:24:36;;;;;;;2.65;0.93;;;;;;;31.29;10.41;100704.28;5073328;28;20047;-79
2021/04/05 08:27:53;;;;;;;5.05;1.30;;;;;;;30.54;9.83;100700.47;5073893;28;20043;-80
2021/04/05 08:30:59;;;;;;;2.60;1.10;;;;;;;30.67;10.98;100694.84;5044851;28;20044;-80
2021/04/05 08:34:29;;;;;;;4.40;0.93;;;;;;;29.45;11.36;100685.88;5063252;28;20044;-80
2021/04/05 08:37:14;;;;;;;3.40;1.05;;;;;;;31.30;9.55;100681.34;4976513;28;20042;-79
2021/04/05 08:40:11;;;;;;;2.35;0.90;;;;;;;32.19;8.77;100681.50;5071654;28;20059;-81
2021/04/05 08:43:17;;;;;;;3.75;0.77;;;;;;;33.78;7.67;100681.38;5070040;28;20052;-81
2021/04/05 08:46:14;;;;;;;3.42;0.85;;;;;;;30.60;11.42;100667.78;5068770;28;20055;-80
2021/04/05 08:49:05;;;;;;;3.03;1.23;;;;;;;30.80;11.01;100662.66;5072071;28;20315;-80
2021/04/05 08:51:54;;;;;;;29.60;2.38;;;;;;;30.50;11.60;100655.69;5072006;28;20052;-80
2021/04/05 08:54:41;;;;;;;6.47;3.17;;;;;;;34.12;6.96;100658.28;5066218;28;20064;-80
2021/04/05 08:57:31;;;;;;;3.60;1.05;;;;;;;32.02;8.24;100649.22;5072551;28;20420;-80
2021/04/05 09:00:16;;;;;;;5.72;1.25;;;;;;;34.96;6.78;100651.59;5071803;28;20043;-81
2021/04/05 09:03:07;;;;;;;4.60;1.30;;;;;;;35.04;6.76;100644.31;5068904;28;20511;-80
2021/04/05 09:05:53;;;;;;;3.85;2.00;;;;;;;36.16;5.78;100650.59;5073659;28;20051;-80
2021/04/05 09:08:39;;;;;;;11.38;1.50;;;;;;;35.53;6.63;100643.63;5071119;28;20559;-81
2021/04/05 09:11:25;;;;;;;2.33;1.00;;;;;;;32.77;7.51;100635.59;5053664;28;20044;-81
2021/04/05 09:14:14;;;;;;;1.27;0.98;;;;;;;33.57;7.13;100634.38;5073807;28;20067;-80
2021/04/05 09:17:27;;;;;;;1.67;1.00;;;;;;;35.05;5.84;100631.75;5054854;28;20044;-80
2021/04/05 09:20:30;;;;;;;5.50;1.00;;;;;;;34.72;6.19;100615.72;5071831;28;20064;-80
2021/04/05 09:23:33;;;;;;;1.13;0.82;;;;;;;36.63;5.33;100621.06;5071534;28;20047;-81
2021/04/05 09:26:30;;;;;;;5.25;0.95;;;;;;;35.81;5.79;100619.41;5051366;28;20048;-82
2021/04/05 09:29:35;;;;;;;3.58;1.58;;;;;;;33.96;6.56;100607.88;5056648;28;20039;-82
2021/04/05 09:32:28;;;;;;;1.42;0.80;;;;;;;35.46;6.47;100608.03;5067436;28;20065;-82
2021/04/05 09:35:58;;;;;;;2.05;0.90;;;;;;;34.38;6.48;100598.56;5073246;28;20051;-81
2021/04/05 09:38:53;;;;;;;10.95;0.95;;;;;;;36.73;5.27;100604.66;4993725;28;20049;-81
2021/04/05 09:41:58;;;;;;;2.25;1.10;;;;;;;33.40;7.32;100592.44;5073210;28;20043;-81
2021/04/05 09:45:01;;;;;;;1.77;1.27;;;;;;;36.55;5.99;100594.41;5067900;28;20048;-80
2021/04/05 09:48:32;;;;;;;3.65;1.20;;;;;;;32.73;7.94;100586.31;5070335;28;20040;-80
2021/04/05 09:51:48;;;;;;;3.58;1.33;;;;;;;36.30;5.53;100576.09;5067299;28;20048;-81
2021/04/05 09:54:43;;;;;;;1.98;1.10;;;;;;;34.82;6.24;100573.22;5071778;28;20035;-81
2021/04/05 09:57:46;;;;;;;2.88;1.00;;;;;;;36.88;5.40;100579.81;5068754;28;20048;-80
2021/04/05 10:00:32;;;;;;;1.88;1.15;;;;;;;34.43;5.92;100567.59;5071873;28;20416;-80
2021/04/05 10:03:19;;;;;;;1.98;1.15;;;;;;;34.96;6.68;100561.91;4691906;22;20431;-78
2021/04/05 10:06:06;;;;;;;3.65;1.13;;;;;;;35.24;5.88;100553.94;5084691;28;20077;-79
2021/04/05 10:08:57;;;;;;;4.75;1.40;;;;;;;35.49;6.10;100546.88;5083715;28;20047;-79
2021/04/05 10:11:44;;;;;;;2.88;1.33;;;;;;;35.21;5.60;100549.25;5065664;28;20044;-78
2021/04/05 10:14:29;;;;;;;1.38;0.80;;;;;;;33.80;6.68;100538.53;5087358;28;20055;-79
2021/04/05 10:17:21;;;;;;;2.08;1.10;;;;;;;33.68;6.62;100536.72;5070703;28;20420;-79
2021/04/05 10:20:07;;;;;;;7.50;1.30;;;;;;;32.28;7.59;100525.91;5081774;28;20047;-78
2021/04/05 10:22:54;;;;;;;5.05;1.77;;;;;;;29.71;9.10;100516.44;5084617;28;20043;-76
2021/04/05 10:25:39;;;;;;;1.55;1.17;;;;;;;27.11;11.33;100504.44;5084535;28;20052;-79
2021/04/05 10:28:28;;;;;;;7.05;1.40;;;;;;;26.22;12.10;100494.28;5080898;28;20408;-76
2021/04/05 10:31:21;;;;;;;4.00;1.50;;;;;;;25.00;12.77;100490.28;5086921;28;20055;-79
2021/04/05 10:34:09;;;;;;;4.22;1.42;;;;;;;23.22;14.27;100488.44;5084186;28;20052;-80
2021/04/05 10:37:01;;;;;;;1.83;1.38;;;;;;;23.51;14.06;100486.31;5076771;28;20079;-78
2021/04/05 10:39:48;;;;;;;2.08;1.50;;;;;;;23.19;14.54;100482.94;5083856;28;20047;-78
2021/04/05 10:42:58;;;;;;;4.32;1.70;;;;;;;23.45;14.45;100479.59;5083818;28;20059;-79
2021/04/05 10:45:52;;;;;;;4.82;1.65;;;;;;;22.38;15.83;100467.47;5087527;28;20047;-79
2021/04/05 10:48:40;;;;;;;3.13;1.67;;;;;;;21.51;16.46;100454.13;5076752;28;20059;-77
2021/04/05 10:51:33;;;;;;;2.33;1.60;;;;;;;22.55;15.42;100456.28;5074686;28;20040;-78
2021/04/05 10:54:29;;;;;;;6.78;1.90;;;;;;;22.88;15.71;100449.44;5086923;28;20408;-78
2021/04/05 10:57:24;;;;;;;2.33;1.60;;;;;;;22.78;15.32;100453.06;5086398;28;20075;-77
2021/04/05 11:00:16;;;;;;;2.72;1.88;;;;;;;21.74;16.28;100434.34;5085037;28;20055;-78
2021/04/05 11:03:11;;;;;;;57.90;5.25;;;;;;;22.22;16.33;100431.88;5084418;28;20526;-79
2021/04/05 11:06:01;;;;;;;4.63;1.90;;;;;;;22.18;16.44;100436.66;5081567;28;20051;-79
2021/04/05 11:08:50;;;;;;;4.00;2.33;;;;;;;21.30;17.35;100427.25;5083416;28;20056;-78
2021/04/05 11:11:40;;;;;;;9.15;3.92;;;;;;;21.09;17.50;100404.28;5086679;28;20043;-79
2021/04/05 11:14:25;;;;;;;4.13;2.25;;;;;;;20.95;17.54;100410.59;5083884;28;20054;-78
2021/04/05 11:17:12;;;;;;;5.47;2.28;;;;;;;21.33;17.39;100404.31;5081977;28;20036;-77
2021/04/05 11:19:59;;;;;;;3.00;2.00;;;;;;;21.62;16.72;100398.78;5086474;28;20047;-78
2021/04/05 11:22:45;;;;;;;4.03;2.15;;;;;;;21.57;16.89;100385.34;5082871;28;20044;-79
2021/04/05 11:25:35;;;;;;;4.60;1.70;;;;;;;21.98;16.74;100396.75;5083664;28;20051;-80
2021/04/05 11:28:25;;;;;;;4.10;2.30;;;;;;;21.99;17.62;100398.34;5087617;28;20051;-78
2021/04/05 11:31:13;;;;;;;8.25;2.20;;;;;;;22.14;17.45;100392.38;5080805;28;20040;-78
2021/04/05 11:34:00;;;;;;;3.53;2.13;;;;;;;22.34;17.07;100389.13;5071599;28;20039;-77
2021/04/05 11:36:48;;;;;;;3.40;2.20;;;;;;;21.56;17.59;100378.22;5097536;28;20047;-78
2021/04/05 11:39:37;;;;;;;5.00;2.10;;;;;;;21.41;18.16;100371.13;5092180;28;20055;-76
2021/04/05 11:42:25;;;;;;;8.50;2.13;;;;;;;21.21;18.02;100354.94;5082813;28;20047;-78
2021/04/05 11:45:14;;;;;;;4.55;2.30;;;;;;;21.50;18.20;100346.59;5081187;28;20051;-77
2021/04/05 11:48:10;;;;;;;4.53;1.52;;;;;;;21.58;17.88;100342.66;5077210;28;20523;-77
2021/04/05 11:50:56;;;;;;;6.10;2.15;;;;;;;21.66;17.86;100335.91;5074941;28;20044;-82
2021/04/05 11:54:23;;;;;;;7.82;2.45;;;;;;;21.04;18.66;100328.06;5093605;28;20043;-79
2021/04/05 11:57:12;;;;;;;3.30;1.80;;;;;;;21.56;17.96;100331.19;5067728;28;20039;-78
2021/04/05 12:00:06;;;;;;;2.17;1.83;;;;;;;21.61;18.09;100326.03;5083305;28;20039;-79
2021/04/05 12:03:10;;;;;;;2.83;1.67;;;;;;;21.27;18.67;100325.72;5064621;28;20055;-77
2021/04/05 12:06:10;;;;;;;3.58;1.60;;;;;;;22.03;17.77;100314.06;5088790;28;20039;-76
2021/04/05 12:09:00;;;;;;;2.58;1.60;;;;;;;21.47;17.86;100303.16;5084108;28;20508;-76
2021/04/05 12:11:50;;;;;;;2.95;1.40;;;;;;;22.38;16.77;100306.75;5068989;28;20043;-78
2021/04/05 12:14:37;;;;;;;3.60;2.13;;;;;;;22.26;17.15;100293.34;5085741;28;20039;-78
2021/04/05 12:17:24;;;;;;;3.35;1.92;;;;;;;22.48;16.89;100278.19;5086464;28;20043;-77
2021/04/05 12:20:10;;;;;;;3.40;1.98;;;;;;;21.74;17.56;100265.47;5080127;28;20059;-76
2021/04/05 12:23:03;;;;;;;9.98;2.33;;;;;;;22.14;17.77;100264.94;5081168;28;20040;-83
2021/04/05 12:25:51;;;;;;;4.38;2.13;;;;;;;22.00;17.29;100253.94;5080583;28;20043;-77
2021/04/05 12:28:40;;;;;;;4.90;2.90;;;;;;;21.89;17.90;100244.84;5080903;28;20040;-76
2021/04/05 12:31:26;;;;;;;14.98;2.83;;;;;;;21.67;17.89;100240.63;5084811;28;20158;-77
2021/04/05 12:34:14;;;;;;;8.65;1.98;;;;;;;21.86;17.96;100231.03;5082452;28;20044;-79
2021/04/05 12:37:02;;;;;;;3.35;2.28;;;;;;;21.66;17.66;100231.53;5063485;28;20412;-77
2021/04/05 12:39:52;;;;;;;8.10;2.08;;;;;;;21.34;18.52;100223.34;5084270;28;20046;-78
2021/04/05 12:42:38;;;;;;;14.80;2.45;;;;;;;21.19;18.90;100215.47;5082597;28;20047;-77
2021/04/05 12:45:24;;;;;;;5.95;2.42;;;;;;;21.56;18.47;100212.19;5072886;28;20424;-77
2021/04/05 12:48:11;;;;;;;11.93;2.35;;;;;;;21.84;18.44;100214.06;5087998;28;20047;-78
2021/04/05 12:50:59;;;;;;;7.18;2.42;;;;;;;21.77;18.11;100203.81;5083055;28;20039;-76
2021/04/05 12:53:45;;;;;;;4.43;2.40;;;;;;;21.73;18.12;100198.28;5074093;28;20055;-77
2021/04/05 12:56:31;;;;;;;3.33;2.20;;;;;;;21.96;18.02;100181.16;5083215;28;20043;-76
2021/04/05 12:59:25;;;;;;;6.75;2.33;;;;;;;19.51;20.32;100186.13;5084413;28;20067;-77
2021/04/05 13:02:13;;;;;;;5.20;2.40;;;;;;;20.04;19.47;100177.19;5088823;28;20035;-78
2021/04/05 13:05:04;;;;;;;5.28;2.30;;;;;;;20.52;19.75;100180.41;5088219;28;20055;-77
2021/04/05 13:07:57;;;;;;;4.15;2.28;;;;;;;20.51;19.70;100169.75;5089169;28;20039;-78
2021/04/05 13:11:00;;;;;;;3.70;2.30;;;;;;;20.30;20.18;100165.78;5086844;28;20043;-77
2021/04/05 13:13:55;;;;;;;3.28;2.20;;;;;;;20.23;20.07;100157.50;5089459;28;20035;-77
2021/04/05 13:16:55;;;;;;;6.65;1.73;;;;;;;20.71;19.72;100151.59;5092849;28;20039;-77
2021/04/05 13:19:54;;;;;;;7.22;2.28;;;;;;;20.69;19.58;100146.44;5089623;28;20052;-76
2021/04/05 13:22:41;;;;;;;6.05;2.20;;;;;;;21.12;19.50;100138.06;5072277;28;20043;-77
2021/04/05 13:25:53;;;;;;;5.53;2.22;;;;;;;20.93;19.14;100147.56;5074914;28;20051;-77
2021/04/05 13:28:41;;;;;;;4.80;2.25;;;;;;;20.74;19.46;100134.19;5084711;28;20064;-74